Delta Virtual Airport Information Service

Jacksonville International Airport

ICAO: KJAX Country: United States
Latitude: 30.494 Longitude: -81.6878
Latest Arrival : DAC7112 (KMSY-KJAX) Latest Departure : DAL322 (B) (KJAX-KATL)


WX CaptureLIVE
Data provided by noaa.gov | Fetched at 23:51:47

METAR : KJAX 060356Z 18003KT 10SM SCT130 BKN200 23/22 A2999 RMK AO2 SLP154 T02280217 $

TAF : KJAX 060105Z 0601/0624 16004KT P6SM FEW030 BKN200 FM060700 VRB02KT 4SM BR FEW020 SCT250 FM061400 22005KT P6SM SCT030 SCT250 FM061700 17008KT P6SM VCTS SCT030CB SCT250


Runway Data for KJAX
Data provided by openaviationdata.com

Runway ID Mag Var Hdg Length Elevation Surface ILS Freq ILS Id ILS Slope
7 -4 75° 9995 ft 30 ft Concrete 110.7 IJAX 3
13 -4 135° 7704 ft 30 ft Concrete 110.5 ICZH 3
25 -4 255° 9995 ft 30 ft Concrete 110.3 IPEK 3
31 -4 315° 7704 ft 30 ft Concrete -- -- --

Jacksonville International Airport, United States
Use only for reference purposes



Not for navigational purposes.